sensor_id;sensor_type;location;lat;lon;timestamp;P1;durP1;ratioP1;P2;durP2;ratioP2
1090;SDS011;534;48.704;9.122;2023-05-29T04:00:55;3.00;;;1.80;;
1090;SDS011;534;48.704;9.122;2023-05-29T04:03:22;2.77;;;2.00;;
1090;SDS011;534;48.704;9.122;2023-05-29T04:05:49;2.50;;;2.10;;
1090;SDS011;534;48.704;9.122;2023-05-29T04:08:15;3.47;;;2.17;;
1090;SDS011;534;48.704;9.122;2023-05-29T04:10:42;2.60;;;1.90;;
1090;SDS011;534;48.704;9.122;2023-05-29T04:13:09;2.63;;;1.97;;
1090;SDS011;534;48.704;9.122;2023-05-29T04:15:36;4.10;;;2.23;;
1090;SDS011;534;48.704;9.122;2023-05-29T04:18:04;2.80;;;1.97;;
1090;SDS011;534;48.704;9.122;2023-05-29T04:20:30;2.83;;;1.97;;
1090;SDS011;534;48.704;9.122;2023-05-29T04:22:57;3.37;;;2.20;;
1090;SDS011;534;48.704;9.122;2023-05-29T04:25:24;3.60;;;2.43;;
1090;SDS011;534;48.704;9.122;2023-05-29T04:27:50;2.60;;;2.23;;
1090;SDS011;534;48.704;9.122;2023-05-29T04:30:17;2.50;;;2.00;;
1090;SDS011;534;48.704;9.122;2023-05-29T04:32:44;2.70;;;2.33;;
1090;SDS011;534;48.704;9.122;2023-05-29T04:35:13;2.27;;;1.73;;
1090;SDS011;534;48.704;9.122;2023-05-29T04:37:40;2.40;;;1.80;;
1090;SDS011;534;48.704;9.122;2023-05-29T04:40:09;2.80;;;1.93;;
1090;SDS011;534;48.704;9.122;2023-05-29T04:42:36;2.70;;;1.67;;
1090;SDS011;534;48.704;9.122;2023-05-29T04:45:05;6.27;;;2.40;;
1090;SDS011;534;48.704;9.122;2023-05-29T04:47:34;2.80;;;2.20;;
1090;SDS011;534;48.704;9.122;2023-05-29T04:50:08;3.13;;;2.53;;
1090;SDS011;534;48.704;9.122;2023-05-29T04:52:37;2.57;;;2.00;;
1090;SDS011;534;48.704;9.122;2023-05-29T04:55:04;2.70;;;2.10;;
1090;SDS011;534;48.704;9.122;2023-05-29T04:57:31;3.30;;;2.20;;
1090;SDS011;534;48.704;9.122;2023-05-29T04:59:58;2.50;;;2.00;;
1090;SDS011;534;48.704;9.122;2023-05-29T05:02:25;3.23;;;2.30;;
1090;SDS011;534;48.704;9.122;2023-05-29T05:04:51;3.33;;;2.00;;
1090;SDS011;534;48.704;9.122;2023-05-29T05:07:18;3.50;;;2.40;;
1090;SDS011;534;48.704;9.122;2023-05-29T05:09:46;2.60;;;2.30;;
1090;SDS011;534;48.704;9.122;2023-05-29T05:12:13;3.53;;;2.07;;
1090;SDS011;534;48.704;9.122;2023-05-29T05:14:39;2.50;;;2.30;;
1090;SDS011;534;48.704;9.122;2023-05-29T05:17:06;3.03;;;2.10;;
1090;SDS011;534;48.704;9.122;2023-05-29T05:19:32;3.20;;;2.30;;
1090;SDS011;534;48.704;9.122;2023-05-29T05:21:59;2.40;;;2.07;;
1090;SDS011;534;48.704;9.122;2023-05-29T05:24:26;4.23;;;2.53;;
1090;SDS011;534;48.704;9.122;2023-05-29T05:26:54;2.53;;;1.87;;
1090;SDS011;534;48.704;9.122;2023-05-29T05:29:21;3.37;;;2.33;;
1090;SDS011;534;48.704;9.122;2023-05-29T05:31:48;3.20;;;2.27;;
1090;SDS011;534;48.704;9.122;2023-05-29T05:34:14;3.80;;;2.03;;
1090;SDS011;534;48.704;9.122;2023-05-29T05:36:41;3.03;;;2.10;;
1090;SDS011;534;48.704;9.122;2023-05-29T05:39:08;2.73;;;2.20;;
1090;SDS011;534;48.704;9.122;2023-05-29T05:41:34;3.07;;;1.90;;
1090;SDS011;534;48.704;9.122;2023-05-29T05:44:02;4.70;;;2.07;;
1090;SDS011;534;48.704;9.122;2023-05-29T05:46:29;3.03;;;2.30;;
1090;SDS011;534;48.704;9.122;2023-05-29T05:48:56;2.50;;;2.03;;
1090;SDS011;534;48.704;9.122;2023-05-29T05:51:22;3.50;;;2.30;;
1090;SDS011;534;48.704;9.122;2023-05-29T05:56:58;2.50;;;2.00;;
1090;SDS011;534;48.704;9.122;2023-05-29T05:59:26;3.23;;;1.87;;
1090;SDS011;534;48.704;9.122;2023-05-29T06:01:53;3.30;;;1.93;;
1090;SDS011;534;48.704;9.122;2023-05-29T06:04:21;3.23;;;2.50;;
1090;SDS011;534;48.704;9.122;2023-05-29T06:06:48;2.70;;;1.93;;
1090;SDS011;534;48.704;9.122;2023-05-29T06:09:14;2.97;;;1.90;;
1090;SDS011;534;48.704;9.122;2023-05-29T06:11:41;2.77;;;1.80;;
1090;SDS011;534;48.704;9.122;2023-05-29T06:14:08;2.93;;;2.40;;
1090;SDS011;534;48.704;9.122;2023-05-29T06:16:36;3.20;;;2.17;;
1090;SDS011;534;48.704;9.122;2023-05-29T06:19:03;3.70;;;2.10;;
1090;SDS011;534;48.704;9.122;2023-05-29T06:21:30;3.07;;;2.37;;
1090;SDS011;534;48.704;9.122;2023-05-29T06:23:57;2.97;;;2.10;;
1090;SDS011;534;48.704;9.122;2023-05-29T06:26:24;2.33;;;1.60;;
1090;SDS011;534;48.704;9.122;2023-05-29T06:28:51;2.23;;;1.73;;
1090;SDS011;534;48.704;9.122;2023-05-29T06:31:18;2.73;;;2.03;;
1090;SDS011;534;48.704;9.122;2023-05-29T06:33:46;4.63;;;2.30;;
1090;SDS011;534;48.704;9.122;2023-05-29T06:36:13;2.57;;;2.27;;
1090;SDS011;534;48.704;9.122;2023-05-29T06:38:39;3.03;;;1.77;;
1090;SDS011;534;48.704;9.122;2023-05-29T06:41:11;2.80;;;2.33;;
1090;SDS011;534;48.704;9.122;2023-05-29T06:43:38;2.77;;;2.17;;
1090;SDS011;534;48.704;9.122;2023-05-29T06:46:04;3.07;;;2.00;;
1090;SDS011;534;48.704;9.122;2023-05-29T06:48:32;2.47;;;1.77;;
1090;SDS011;534;48.704;9.122;2023-05-29T06:51:00;3.37;;;2.53;;
1090;SDS011;534;48.704;9.122;2023-05-29T06:53:34;2.73;;;2.20;;
1090;SDS011;534;48.704;9.122;2023-05-29T06:56:00;2.90;;;2.10;;
1090;SDS011;534;48.704;9.122;2023-05-29T06:58:27;2.80;;;2.10;;
1090;SDS011;534;48.704;9.122;2023-05-29T07:00:54;2.90;;;2.27;;
1090;SDS011;534;48.704;9.122;2023-05-29T07:03:20;3.23;;;2.40;;
1090;SDS011;534;48.704;9.122;2023-05-29T07:05:47;3.40;;;2.50;;
1090;SDS011;534;48.704;9.122;2023-05-29T07:08:15;4.10;;;2.37;;
1090;SDS011;534;48.704;9.122;2023-05-29T07:10:42;2.93;;;1.93;;
1090;SDS011;534;48.704;9.122;2023-05-29T07:13:08;2.93;;;2.10;;
1090;SDS011;534;48.704;9.122;2023-05-29T07:15:36;3.27;;;2.10;;
1090;SDS011;534;48.704;9.122;2023-05-29T07:18:03;2.47;;;2.00;;
1090;SDS011;534;48.704;9.122;2023-05-29T07:20:30;2.70;;;2.30;;
1090;SDS011;534;48.704;9.122;2023-05-29T07:22:57;3.80;;;2.60;;
1090;SDS011;534;48.704;9.122;2023-05-29T07:25:25;3.23;;;2.27;;
1090;SDS011;534;48.704;9.122;2023-05-29T07:27:52;3.00;;;2.13;;
1090;SDS011;534;48.704;9.122;2023-05-29T07:30:18;3.17;;;2.50;;
1090;SDS011;534;48.704;9.122;2023-05-29T07:32:45;2.90;;;2.53;;
1090;SDS011;534;48.704;9.122;2023-05-29T07:35:12;2.80;;;2.27;;
1090;SDS011;534;48.704;9.122;2023-05-29T07:37:38;3.20;;;2.40;;
1090;SDS011;534;48.704;9.122;2023-05-29T07:40:05;3.63;;;2.50;;
1090;SDS011;534;48.704;9.122;2023-05-29T07:42:34;2.83;;;2.10;;
1090;SDS011;534;48.704;9.122;2023-05-29T07:45:01;2.70;;;2.17;;
1090;SDS011;534;48.704;9.122;2023-05-29T07:47:27;3.80;;;2.40;;
1090;SDS011;534;48.704;9.122;2023-05-29T07:49:54;3.07;;;2.40;;
1090;SDS011;534;48.704;9.122;2023-05-29T07:52:21;2.53;;;2.00;;
1090;SDS011;534;48.704;9.122;2023-05-29T07:54:47;3.80;;;2.50;;
1090;SDS011;534;48.704;9.122;2023-05-29T07:57:14;2.80;;;2.10;;
1090;SDS011;534;48.704;9.122;2023-05-29T07:59:42;2.50;;;1.83;;
1090;SDS011;534;48.704;9.122;2023-05-29T08:02:09;2.60;;;2.30;;
1090;SDS011;534;48.704;9.122;2023-05-29T08:04:37;3.17;;;1.90;;
1090;SDS011;534;48.704;9.122;2023-05-29T08:07:03;3.00;;;2.70;;
1090;SDS011;534;48.704;9.122;2023-05-29T08:09:30;3.30;;;2.10;;
1090;SDS011;534;48.704;9.122;2023-05-29T08:11:57;6.13;;;2.43;;
1090;SDS011;534;48.704;9.122;2023-05-29T08:14:25;2.67;;;2.37;;
1090;SDS011;534;48.704;9.122;2023-05-29T08:16:53;3.30;;;2.30;;
1090;SDS011;534;48.704;9.122;2023-05-29T08:19:21;2.60;;;2.23;;
1090;SDS011;534;48.704;9.122;2023-05-29T08:21:49;3.80;;;2.20;;
1090;SDS011;534;48.704;9.122;2023-05-29T08:24:16;3.20;;;2.27;;
1090;SDS011;534;48.704;9.122;2023-05-29T08:26:42;3.27;;;2.50;;
1090;SDS011;534;48.704;9.122;2023-05-29T08:29:09;3.00;;;2.27;;
1090;SDS011;534;48.704;9.122;2023-05-29T08:31:36;3.43;;;2.50;;
1090;SDS011;534;48.704;9.122;2023-05-29T08:34:04;2.80;;;2.03;;
1090;SDS011;534;48.704;9.122;2023-05-29T08:36:31;2.10;;;1.70;;
1090;SDS011;534;48.704;9.122;2023-05-29T08:38:58;2.70;;;2.40;;
1090;SDS011;534;48.704;9.122;2023-05-29T08:41:26;2.53;;;1.93;;
1090;SDS011;534;48.704;9.122;2023-05-29T08:44:00;2.83;;;2.30;;
1090;SDS011;534;48.704;9.122;2023-05-29T08:46:31;3.17;;;2.73;;
1090;SDS011;534;48.704;9.122;2023-05-29T08:48:58;2.70;;;2.40;;
1090;SDS011;534;48.704;9.122;2023-05-29T08:51:31;3.23;;;2.37;;
1090;SDS011;534;48.704;9.122;2023-05-29T08:54:01;3.50;;;2.70;;
1090;SDS011;534;48.704;9.122;2023-05-29T08:56:28;2.67;;;1.90;;
1090;SDS011;534;48.704;9.122;2023-05-29T08:58:56;2.93;;;2.40;;
1090;SDS011;534;48.704;9.122;2023-05-29T09:01:23;3.40;;;2.60;;
1090;SDS011;534;48.704;9.122;2023-05-29T09:03:51;3.40;;;2.30;;
1090;SDS011;534;48.704;9.122;2023-05-29T09:06:19;2.57;;;2.07;;
1090;SDS011;534;48.704;9.122;2023-05-29T09:08:49;2.70;;;2.37;;
1090;SDS011;534;48.704;9.122;2023-05-29T09:11:17;2.80;;;2.00;;
1090;SDS011;534;48.704;9.122;2023-05-29T09:13:44;2.97;;;1.90;;
1090;SDS011;534;48.704;9.122;2023-05-29T09:16:12;2.90;;;2.40;;
1090;SDS011;534;48.704;9.122;2023-05-29T09:18:38;2.40;;;2.17;;
1090;SDS011;534;48.704;9.122;2023-05-29T09:21:07;2.87;;;2.27;;
1090;SDS011;534;48.704;9.122;2023-05-29T09:23:34;2.90;;;1.87;;
1090;SDS011;534;48.704;9.122;2023-05-29T09:26:02;2.83;;;1.90;;
1090;SDS011;534;48.704;9.122;2023-05-29T09:28:29;2.53;;;2.20;;
1090;SDS011;534;48.704;9.122;2023-05-29T09:30:57;3.23;;;2.47;;
1090;SDS011;534;48.704;9.122;2023-05-29T09:33:24;3.07;;;2.13;;
1090;SDS011;534;48.704;9.122;2023-05-29T09:35:51;3.10;;;2.13;;
1090;SDS011;534;48.704;9.122;2023-05-29T09:38:18;2.53;;;2.20;;
1090;SDS011;534;48.704;9.122;2023-05-29T09:40:45;2.40;;;2.00;;
1090;SDS011;534;48.704;9.122;2023-05-29T09:43:14;3.83;;;2.10;;
1090;SDS011;534;48.704;9.122;2023-05-29T09:45:42;2.80;;;2.13;;
1090;SDS011;534;48.704;9.122;2023-05-29T09:48:12;3.00;;;2.10;;
1090;SDS011;534;48.704;9.122;2023-05-29T09:50:40;3.63;;;2.07;;
1090;SDS011;534;48.704;9.122;2023-05-29T09:53:18;3.53;;;2.40;;
1090;SDS011;534;48.704;9.122;2023-05-29T09:55:46;3.10;;;2.30;;
1090;SDS011;534;48.704;9.122;2023-05-29T09:58:20;3.17;;;2.20;;
1090;SDS011;534;48.704;9.122;2023-05-29T10:01:01;2.77;;;2.10;;
1090;SDS011;534;48.704;9.122;2023-05-29T10:03:28;3.60;;;2.47;;
1090;SDS011;534;48.704;9.122;2023-05-29T10:05:59;2.80;;;2.40;;
1090;SDS011;534;48.704;9.122;2023-05-29T10:08:27;2.67;;;2.10;;
1090;SDS011;534;48.704;9.122;2023-05-29T10:10:59;3.27;;;2.20;;
1090;SDS011;534;48.704;9.122;2023-05-29T10:13:28;2.50;;;2.13;;
1090;SDS011;534;48.704;9.122;2023-05-29T10:18:31;2.30;;;1.77;;
1090;SDS011;534;48.704;9.122;2023-05-29T10:21:01;2.40;;;1.97;;
1090;SDS011;534;48.704;9.122;2023-05-29T10:23:29;2.40;;;2.10;;
1090;SDS011;534;48.704;9.122;2023-05-29T10:25:57;3.00;;;2.10;;
1090;SDS011;534;48.704;9.122;2023-05-29T10:28:30;2.47;;;2.00;;
1090;SDS011;534;48.704;9.122;2023-05-29T10:31:00;2.80;;;1.97;;
1090;SDS011;534;48.704;9.122;2023-05-29T10:33:36;4.00;;;2.10;;
1090;SDS011;534;48.704;9.122;2023-05-29T10:36:12;2.53;;;1.90;;
1090;SDS011;534;48.704;9.122;2023-05-29T10:38:40;4.57;;;2.33;;
1090;SDS011;534;48.704;9.122;2023-05-29T10:43:58;2.93;;;2.30;;
1090;SDS011;534;48.704;9.122;2023-05-29T10:49:25;2.30;;;1.83;;
1090;SDS011;534;48.704;9.122;2023-05-29T10:51:52;2.37;;;1.93;;
1090;SDS011;534;48.704;9.122;2023-05-29T10:54:21;2.60;;;2.10;;
1090;SDS011;534;48.704;9.122;2023-05-29T10:56:51;2.53;;;2.20;;
1090;SDS011;534;48.704;9.122;2023-05-29T10:59:20;2.87;;;2.00;;
1090;SDS011;534;48.704;9.122;2023-05-29T11:01:50;2.70;;;1.77;;
1090;SDS011;534;48.704;9.122;2023-05-29T11:04:27;4.90;;;2.03;;
1090;SDS011;534;48.704;9.122;2023-05-29T11:06:56;3.10;;;1.80;;
1090;SDS011;534;48.704;9.122;2023-05-29T11:09:26;2.73;;;1.97;;
1090;SDS011;534;48.704;9.122;2023-05-29T11:12:10;2.60;;;2.13;;
1090;SDS011;534;48.704;9.122;2023-05-29T11:14:50;2.30;;;2.00;;
1090;SDS011;534;48.704;9.122;2023-05-29T11:17:29;2.87;;;2.03;;
1090;SDS011;534;48.704;9.122;2023-05-29T11:19:57;3.03;;;2.10;;
1090;SDS011;534;48.704;9.122;2023-05-29T11:22:32;3.07;;;1.80;;
1090;SDS011;534;48.704;9.122;2023-05-29T11:25:13;2.70;;;1.63;;
1090;SDS011;534;48.704;9.122;2023-05-29T11:27:40;3.10;;;2.37;;
1090;SDS011;534;48.704;9.122;2023-05-29T11:30:08;2.50;;;1.93;;
1090;SDS011;534;48.704;9.122;2023-05-29T11:32:36;2.60;;;1.60;;
1090;SDS011;534;48.704;9.122;2023-05-29T11:35:03;4.40;;;2.30;;
1090;SDS011;534;48.704;9.122;2023-05-29T11:37:34;3.57;;;2.10;;
1090;SDS011;534;48.704;9.122;2023-05-29T11:40:03;2.77;;;1.97;;
1090;SDS011;534;48.704;9.122;2023-05-29T11:42:30;3.20;;;1.90;;
1090;SDS011;534;48.704;9.122;2023-05-29T11:45:10;2.63;;;1.90;;
1090;SDS011;534;48.704;9.122;2023-05-29T11:47:51;2.50;;;1.77;;
1090;SDS011;534;48.704;9.122;2023-05-29T11:50:19;2.37;;;1.53;;
1090;SDS011;534;48.704;9.122;2023-05-29T11:52:46;2.10;;;1.50;;
1090;SDS011;534;48.704;9.122;2023-05-29T11:55:12;2.43;;;1.73;;
1090;SDS011;534;48.704;9.122;2023-05-29T11:57:39;4.13;;;1.60;;
1090;SDS011;534;48.704;9.122;2023-05-29T12:00:06;2.60;;;1.47;;
1090;SDS011;534;48.704;9.122;2023-05-29T12:02:37;3.80;;;2.10;;
1090;SDS011;534;48.704;9.122;2023-05-29T12:05:04;2.60;;;1.67;;
1090;SDS011;534;48.704;9.122;2023-05-29T12:07:32;2.40;;;1.40;;
1090;SDS011;534;48.704;9.122;2023-05-29T12:10:08;3.07;;;1.87;;
1090;SDS011;534;48.704;9.122;2023-05-29T12:12:35;2.47;;;1.77;;
1090;SDS011;534;48.704;9.122;2023-05-29T12:15:02;4.77;;;2.23;;
1090;SDS011;534;48.704;9.122;2023-05-29T12:17:31;2.13;;;1.60;;
1090;SDS011;534;48.704;9.122;2023-05-29T12:20:00;2.23;;;1.87;;
1090;SDS011;534;48.704;9.122;2023-05-29T12:22:31;3.17;;;1.90;;
1090;SDS011;534;48.704;9.122;2023-05-29T12:25:04;2.70;;;2.00;;
1090;SDS011;534;48.704;9.122;2023-05-29T12:27:32;2.37;;;1.60;;
1090;SDS011;534;48.704;9.122;2023-05-29T12:30:03;2.23;;;1.80;;
1090;SDS011;534;48.704;9.122;2023-05-29T12:35:22;2.27;;;1.53;;
1090;SDS011;534;48.704;9.122;2023-05-29T12:37:53;2.10;;;1.63;;
1090;SDS011;534;48.704;9.122;2023-05-29T12:40:21;2.50;;;1.50;;
1090;SDS011;534;48.704;9.122;2023-05-29T12:42:53;2.30;;;1.60;;
1090;SDS011;534;48.704;9.122;2023-05-29T12:45:21;1.93;;;1.33;;
1090;SDS011;534;48.704;9.122;2023-05-29T12:47:51;2.90;;;1.70;;
1090;SDS011;534;48.704;9.122;2023-05-29T12:50:23;2.50;;;1.70;;
1090;SDS011;534;48.704;9.122;2023-05-29T12:52:55;2.50;;;1.93;;
1090;SDS011;534;48.704;9.122;2023-05-29T12:55:23;2.40;;;1.80;;
1090;SDS011;534;48.704;9.122;2023-05-29T12:57:50;2.77;;;1.67;;
1090;SDS011;534;48.704;9.122;2023-05-29T13:00:18;2.30;;;1.67;;
1090;SDS011;534;48.704;9.122;2023-05-29T13:02:45;2.07;;;1.57;;
1090;SDS011;534;48.704;9.122;2023-05-29T13:05:12;1.80;;;1.20;;
1090;SDS011;534;48.704;9.122;2023-05-29T13:07:41;2.20;;;1.77;;
1090;SDS011;534;48.704;9.122;2023-05-29T13:10:08;2.10;;;1.70;;
1090;SDS011;534;48.704;9.122;2023-05-29T13:12:36;3.20;;;1.40;;
1090;SDS011;534;48.704;9.122;2023-05-29T13:15:02;2.00;;;1.37;;
1090;SDS011;534;48.704;9.122;2023-05-29T13:17:30;2.30;;;1.50;;
1090;SDS011;534;48.704;9.122;2023-05-29T13:19:57;3.07;;;1.70;;
1090;SDS011;534;48.704;9.122;2023-05-29T13:22:24;2.70;;;2.00;;
1090;SDS011;534;48.704;9.122;2023-05-29T13:24:57;2.47;;;1.77;;
1090;SDS011;534;48.704;9.122;2023-05-29T13:27:24;3.33;;;1.53;;
1090;SDS011;534;48.704;9.122;2023-05-29T13:29:51;2.47;;;1.70;;
1090;SDS011;534;48.704;9.122;2023-05-29T13:32:18;2.07;;;1.40;;
1090;SDS011;534;48.704;9.122;2023-05-29T13:34:45;1.90;;;1.50;;
1090;SDS011;534;48.704;9.122;2023-05-29T13:37:12;2.20;;;1.60;;
1090;SDS011;534;48.704;9.122;2023-05-29T13:39:38;2.80;;;1.60;;
1090;SDS011;534;48.704;9.122;2023-05-29T13:42:07;2.40;;;1.47;;
1090;SDS011;534;48.704;9.122;2023-05-29T13:44:34;2.33;;;1.80;;
1090;SDS011;534;48.704;9.122;2023-05-29T13:47:04;2.87;;;1.80;;
1090;SDS011;534;48.704;9.122;2023-05-29T13:49:32;2.40;;;1.53;;
1090;SDS011;534;48.704;9.122;2023-05-29T13:51:59;2.30;;;1.60;;
1090;SDS011;534;48.704;9.122;2023-05-29T13:54:25;3.33;;;1.70;;
1090;SDS011;534;48.704;9.122;2023-05-29T13:56:54;2.20;;;2.00;;
1090;SDS011;534;48.704;9.122;2023-05-29T13:59:23;2.47;;;1.30;;
1090;SDS011;534;48.704;9.122;2023-05-29T14:01:50;2.77;;;1.67;;
1090;SDS011;534;48.704;9.122;2023-05-29T14:04:16;2.67;;;1.97;;
1090;SDS011;534;48.704;9.122;2023-05-29T14:06:43;3.10;;;2.57;;
1090;SDS011;534;48.704;9.122;2023-05-29T14:09:10;2.07;;;1.60;;
1090;SDS011;534;48.704;9.122;2023-05-29T14:11:37;2.63;;;1.70;;
1090;SDS011;534;48.704;9.122;2023-05-29T14:14:03;2.83;;;1.50;;
1090;SDS011;534;48.704;9.122;2023-05-29T14:16:38;2.43;;;1.40;;
1090;SDS011;534;48.704;9.122;2023-05-29T14:19:05;2.73;;;1.57;;
1090;SDS011;534;48.704;9.122;2023-05-29T14:21:31;3.57;;;1.77;;
1090;SDS011;534;48.704;9.122;2023-05-29T14:23:58;2.70;;;2.10;;
1090;SDS011;534;48.704;9.122;2023-05-29T14:26:25;2.63;;;1.80;;
1090;SDS011;534;48.704;9.122;2023-05-29T14:28:51;2.43;;;1.77;;
1090;SDS011;534;48.704;9.122;2023-05-29T14:31:18;2.90;;;1.87;;
1090;SDS011;534;48.704;9.122;2023-05-29T14:33:46;2.40;;;1.80;;
1090;SDS011;534;48.704;9.122;2023-05-29T14:36:13;2.00;;;1.50;;
1090;SDS011;534;48.704;9.122;2023-05-29T14:38:40;2.33;;;1.70;;
1090;SDS011;534;48.704;9.122;2023-05-29T14:41:08;3.77;;;1.40;;
1090;SDS011;534;48.704;9.122;2023-05-29T14:43:35;2.23;;;2.00;;
1090;SDS011;534;48.704;9.122;2023-05-29T14:46:03;2.00;;;1.37;;
1090;SDS011;534;48.704;9.122;2023-05-29T14:48:30;3.00;;;1.90;;
1090;SDS011;534;48.704;9.122;2023-05-29T14:50:58;2.60;;;1.70;;
1090;SDS011;534;48.704;9.122;2023-05-29T14:53:25;2.53;;;1.53;;
1090;SDS011;534;48.704;9.122;2023-05-29T14:55:52;2.00;;;1.50;;
1090;SDS011;534;48.704;9.122;2023-05-29T14:58:20;2.40;;;1.60;;
1090;SDS011;534;48.704;9.122;2023-05-29T15:00:47;2.40;;;1.70;;
1090;SDS011;534;48.704;9.122;2023-05-29T15:03:14;2.73;;;1.83;;
1090;SDS011;534;48.704;9.122;2023-05-29T15:05:41;3.77;;;1.90;;
1090;SDS011;534;48.704;9.122;2023-05-29T15:08:09;2.50;;;1.70;;
1090;SDS011;534;48.704;9.122;2023-05-29T15:10:35;2.20;;;1.50;;
1090;SDS011;534;48.704;9.122;2023-05-29T15:13:02;2.30;;;1.60;;
1090;SDS011;534;48.704;9.122;2023-05-29T15:15:31;2.03;;;1.50;;
1090;SDS011;534;48.704;9.122;2023-05-29T15:17:58;2.80;;;1.83;;
1090;SDS011;534;48.704;9.122;2023-05-29T15:20:26;3.13;;;1.60;;
1090;SDS011;534;48.704;9.122;2023-05-29T15:22:53;2.67;;;1.83;;
1090;SDS011;534;48.704;9.122;2023-05-29T15:25:22;2.97;;;1.90;;
1090;SDS011;534;48.704;9.122;2023-05-29T15:27:49;2.27;;;1.53;;
1090;SDS011;534;48.704;9.122;2023-05-29T15:30:17;2.00;;;1.70;;
1090;SDS011;534;48.704;9.122;2023-05-29T15:32:45;2.10;;;1.67;;
1090;SDS011;534;48.704;9.122;2023-05-29T15:35:14;2.30;;;1.53;;
1090;SDS011;534;48.704;9.122;2023-05-29T15:37:41;4.23;;;2.40;;
1090;SDS011;534;48.704;9.122;2023-05-29T15:40:09;2.50;;;1.93;;
1090;SDS011;534;48.704;9.122;2023-05-29T15:42:37;2.40;;;1.60;;
1090;SDS011;534;48.704;9.122;2023-05-29T15:45:05;2.40;;;1.83;;
1090;SDS011;534;48.704;9.122;2023-05-29T15:47:32;2.70;;;1.60;;
1090;SDS011;534;48.704;9.122;2023-05-29T15:49:59;2.30;;;1.70;;
1090;SDS011;534;48.704;9.122;2023-05-29T15:52:25;2.33;;;1.50;;
1090;SDS011;534;48.704;9.122;2023-05-29T15:54:52;2.10;;;1.63;;
1090;SDS011;534;48.704;9.122;2023-05-29T15:57:19;2.70;;;1.83;;
1090;SDS011;534;48.704;9.122;2023-05-29T15:59:47;2.47;;;1.50;;
1090;SDS011;534;48.704;9.122;2023-05-29T16:02:14;2.93;;;1.50;;
1090;SDS011;534;48.704;9.122;2023-05-29T16:04:40;3.03;;;1.90;;
1090;SDS011;534;48.704;9.122;2023-05-29T16:07:07;2.07;;;1.40;;
1090;SDS011;534;48.704;9.122;2023-05-29T16:09:34;2.43;;;1.77;;
1090;SDS011;534;48.704;9.122;2023-05-29T16:12:02;2.00;;;1.40;;
1090;SDS011;534;48.704;9.122;2023-05-29T16:14:31;2.00;;;1.40;;
1090;SDS011;534;48.704;9.122;2023-05-29T16:16:59;2.40;;;1.70;;
1090;SDS011;534;48.704;9.122;2023-05-29T16:19:26;2.20;;;1.80;;
1090;SDS011;534;48.704;9.122;2023-05-29T16:21:52;2.23;;;1.50;;
1090;SDS011;534;48.704;9.122;2023-05-29T16:24:19;2.87;;;1.53;;
1090;SDS011;534;48.704;9.122;2023-05-29T16:26:46;1.80;;;1.17;;
1090;SDS011;534;48.704;9.122;2023-05-29T16:29:12;2.00;;;1.17;;
1090;SDS011;534;48.704;9.122;2023-05-29T16:31:39;2.40;;;1.63;;
1090;SDS011;534;48.704;9.122;2023-05-29T16:34:07;3.07;;;1.63;;
1090;SDS011;534;48.704;9.122;2023-05-29T16:36:34;3.17;;;1.67;;
1090;SDS011;534;48.704;9.122;2023-05-29T16:39:00;4.50;;;1.67;;
1090;SDS011;534;48.704;9.122;2023-05-29T16:41:27;2.30;;;1.70;;
1090;SDS011;534;48.704;9.122;2023-05-29T16:43:54;3.10;;;1.60;;
1090;SDS011;534;48.704;9.122;2023-05-29T16:46:20;2.20;;;1.47;;
1090;SDS011;534;48.704;9.122;2023-05-29T16:48:48;3.03;;;1.60;;
1090;SDS011;534;48.704;9.122;2023-05-29T16:51:16;2.17;;;1.40;;
1090;SDS011;534;48.704;9.122;2023-05-29T16:53:43;2.10;;;1.37;;
1090;SDS011;534;48.704;9.122;2023-05-29T16:56:09;2.30;;;1.50;;
1090;SDS011;534;48.704;9.122;2023-05-29T16:58:36;2.27;;;1.40;;
1090;SDS011;534;48.704;9.122;2023-05-29T17:01:03;2.20;;;1.43;;
1090;SDS011;534;48.704;9.122;2023-05-29T17:03:29;1.70;;;1.00;;
1090;SDS011;534;48.704;9.122;2023-05-29T17:05:57;2.40;;;1.63;;
1090;SDS011;534;48.704;9.122;2023-05-29T17:08:25;2.57;;;1.70;;
1090;SDS011;534;48.704;9.122;2023-05-29T17:10:51;1.90;;;1.30;;
1090;SDS011;534;48.704;9.122;2023-05-29T17:13:18;2.37;;;1.60;;
1090;SDS011;534;48.704;9.122;2023-05-29T17:15:45;2.40;;;1.80;;
1090;SDS011;534;48.704;9.122;2023-05-29T17:18:12;3.27;;;1.43;;
1090;SDS011;534;48.704;9.122;2023-05-29T17:20:38;2.13;;;1.50;;
1090;SDS011;534;48.704;9.122;2023-05-29T17:23:05;2.00;;;1.30;;
1090;SDS011;534;48.704;9.122;2023-05-29T17:25:33;2.57;;;1.53;;
1090;SDS011;534;48.704;9.122;2023-05-29T17:27:59;1.90;;;1.20;;
1090;SDS011;534;48.704;9.122;2023-05-29T17:30:26;2.40;;;1.30;;
1090;SDS011;534;48.704;9.122;2023-05-29T17:32:53;2.20;;;1.40;;
1090;SDS011;534;48.704;9.122;2023-05-29T17:35:20;2.20;;;1.67;;
1090;SDS011;534;48.704;9.122;2023-05-29T17:37:46;2.33;;;1.80;;
1090;SDS011;534;48.704;9.122;2023-05-29T17:40:13;2.53;;;1.67;;
1090;SDS011;534;48.704;9.122;2023-05-29T17:42:41;1.80;;;1.20;;
1090;SDS011;534;48.704;9.122;2023-05-29T17:45:08;1.90;;;1.40;;
1090;SDS011;534;48.704;9.122;2023-05-29T17:47:36;2.17;;;1.50;;
1090;SDS011;534;48.704;9.122;2023-05-29T17:50:02;2.00;;;1.40;;
1090;SDS011;534;48.704;9.122;2023-05-29T17:52:30;1.90;;;1.13;;
1090;SDS011;534;48.704;9.122;2023-05-29T17:54:56;1.90;;;1.20;;
1090;SDS011;534;48.704;9.122;2023-05-29T17:57:23;2.30;;;1.53;;
1090;SDS011;534;48.704;9.122;2023-05-29T17:59:51;3.40;;;1.60;;
1090;SDS011;534;48.704;9.122;2023-05-29T18:02:18;2.00;;;1.33;;
1090;SDS011;534;48.704;9.122;2023-05-29T18:04:45;4.13;;;1.60;;
1090;SDS011;534;48.704;9.122;2023-05-29T18:07:13;2.73;;;1.57;;
1090;SDS011;534;48.704;9.122;2023-05-29T18:09:42;2.57;;;1.77;;
1090;SDS011;534;48.704;9.122;2023-05-29T18:12:08;2.10;;;1.50;;
1090;SDS011;534;48.704;9.122;2023-05-29T18:14:35;2.63;;;1.40;;
1090;SDS011;534;48.704;9.122;2023-05-29T18:17:03;2.87;;;1.67;;
1090;SDS011;534;48.704;9.122;2023-05-29T18:19:30;2.10;;;1.20;;
1090;SDS011;534;48.704;9.122;2023-05-29T18:21:57;2.20;;;1.40;;
1090;SDS011;534;48.704;9.122;2023-05-29T18:24:24;2.80;;;1.80;;
1090;SDS011;534;48.704;9.122;2023-05-29T18:26:51;2.27;;;1.33;;
1090;SDS011;534;48.704;9.122;2023-05-29T18:29:17;2.00;;;1.40;;
1090;SDS011;534;48.704;9.122;2023-05-29T18:31:44;2.73;;;1.80;;
1090;SDS011;534;48.704;9.122;2023-05-29T18:34:12;2.00;;;1.60;;
1090;SDS011;534;48.704;9.122;2023-05-29T18:36:39;7.63;;;1.97;;
1090;SDS011;534;48.704;9.122;2023-05-29T18:39:06;2.13;;;1.60;;
1090;SDS011;534;48.704;9.122;2023-05-29T18:41:33;2.30;;;1.70;;
1090;SDS011;534;48.704;9.122;2023-05-29T18:43:59;2.53;;;2.13;;
1090;SDS011;534;48.704;9.122;2023-05-29T18:46:26;2.30;;;1.57;;
1090;SDS011;534;48.704;9.122;2023-05-29T18:48:53;2.33;;;1.30;;
1090;SDS011;534;48.704;9.122;2023-05-29T18:51:21;2.63;;;1.57;;
1090;SDS011;534;48.704;9.122;2023-05-29T18:53:47;2.40;;;1.63;;
1090;SDS011;534;48.704;9.122;2023-05-29T18:56:14;2.23;;;1.63;;
1090;SDS011;534;48.704;9.122;2023-05-29T18:58:41;2.83;;;1.90;;
1090;SDS011;534;48.704;9.122;2023-05-29T19:01:07;3.03;;;1.50;;
1090;SDS011;534;48.704;9.122;2023-05-29T19:03:34;2.20;;;1.53;;
1090;SDS011;534;48.704;9.122;2023-05-29T19:06:01;2.90;;;1.93;;
1090;SDS011;534;48.704;9.122;2023-05-29T19:08:29;2.13;;;1.50;;
1090;SDS011;534;48.704;9.122;2023-05-29T19:10:56;2.50;;;1.90;;
1090;SDS011;534;48.704;9.122;2023-05-29T19:13:23;2.50;;;1.70;;
1090;SDS011;534;48.704;9.122;2023-05-29T19:15:49;2.40;;;1.60;;
1090;SDS011;534;48.704;9.122;2023-05-29T19:18:16;2.63;;;1.80;;
1090;SDS011;534;48.704;9.122;2023-05-29T19:20:43;2.70;;;1.70;;
1090;SDS011;534;48.704;9.122;2023-05-29T19:23:10;3.00;;;1.50;;
1090;SDS011;534;48.704;9.122;2023-05-29T19:25:38;2.30;;;1.57;;
1090;SDS011;534;48.704;9.122;2023-05-29T19:28:04;2.20;;;1.70;;
1090;SDS011;534;48.704;9.122;2023-05-29T19:30:33;2.57;;;1.67;;
1090;SDS011;534;48.704;9.122;2023-05-29T19:33:00;3.10;;;2.20;;
1090;SDS011;534;48.704;9.122;2023-05-29T19:35:26;3.13;;;2.40;;
1090;SDS011;534;48.704;9.122;2023-05-29T19:37:53;2.73;;;2.17;;
1090;SDS011;534;48.704;9.122;2023-05-29T19:40:20;3.00;;;1.90;;
1090;SDS011;534;48.704;9.122;2023-05-29T19:42:48;2.77;;;1.83;;
1090;SDS011;534;48.704;9.122;2023-05-29T19:45:14;2.73;;;1.70;;
1090;SDS011;534;48.704;9.122;2023-05-29T19:47:42;2.50;;;2.10;;